Time;durP1;ratioP1;P1;durP2;ratioP2;P2;SDS_P1;SDS_P2;PMS_P1;PMS_P2;Temp;Humidity;BMP_temperature;BMP_pressure;BME280_temperature;BME280_humidity;BME280_pressure;Samples;Min_cycle;Max_cycle;Signal;HPM_P1;HPM_P2
2022/09/17 00:00:23;;;;;;;1.52;0.70;;;;;;;;;;5155710;27;20031;-56
2022/09/17 00:02:50;;;;;;;1.45;0.63;;;;;;;;;;5155153;27;20022;-53
2022/09/17 00:05:16;;;;;;;2.22;1.02;;;;;;;;;;5155700;27;20409;-51
2022/09/17 00:07:42;;;;;;;1.52;0.75;;;;;;;;;;5155439;27;20027;-56
2022/09/17 00:10:08;;;;;;;1.40;0.70;;;;;;;;;;5155407;27;20030;-55
2022/09/17 00:12:34;;;;;;;1.00;0.60;;;;;;;;;;5155149;27;20094;-56
2022/09/17 00:15:00;;;;;;;2.97;0.93;;;;;;;;;;5155590;27;20153;-55
2022/09/17 00:17:26;;;;;;;1.15;0.52;;;;;;;;;;5155090;27;20056;-55
2022/09/17 00:19:52;;;;;;;1.35;0.63;;;;;;;;;;5154990;27;20019;-51
2022/09/17 00:22:18;;;;;;;0.70;0.50;;;;;;;;;;5155072;27;20413;-56
2022/09/17 00:24:44;;;;;;;2.53;0.73;;;;;;;;;;5155342;27;20371;-55
2022/09/17 00:27:10;;;;;;;2.13;0.80;;;;;;;;;;5155291;27;20341;-55
2022/09/17 00:29:36;;;;;;;0.60;0.30;;;;;;;;;;5155012;27;20417;-55
2022/09/17 00:32:02;;;;;;;1.25;0.70;;;;;;;;;;5157338;27;20400;-55
2022/09/17 00:34:28;;;;;;;1.63;0.90;;;;;;;;;;5158926;27;20083;-55
2022/09/17 00:36:54;;;;;;;2.05;0.60;;;;;;;;;;5158654;27;20368;-55
2022/09/17 00:39:20;;;;;;;1.17;0.47;;;;;;;;;;5158604;27;20417;-55
2022/09/17 00:41:46;;;;;;;1.75;0.70;;;;;;;;;;5158749;27;20019;-55
2022/09/17 00:44:31;;;;;;;1.38;0.70;;;;;;;;;;5159362;27;20117;-55
2022/09/17 00:46:57;;;;;;;2.13;0.57;;;;;;;;;;5158473;27;20067;-55
2022/09/17 00:49:28;;;;;;;1.27;0.80;;;;;;;;;;5158359;27;20115;-54
2022/09/17 00:51:54;;;;;;;0.60;0.30;;;;;;;;;;5158508;27;20047;-51
2022/09/17 00:54:20;;;;;;;1.17;0.70;;;;;;;;;;5158845;27;20037;-55
2022/09/17 00:56:46;;;;;;;1.25;0.73;;;;;;;;;;5158786;27;20030;-54
2022/09/17 00:59:14;;;;;;;2.65;1.08;;;;;;;;;;5158532;27;20027;-55
2022/09/17 01:01:40;;;;;;;2.40;0.90;;;;;;;;;;5158679;27;20055;-55
2022/09/17 01:04:06;;;;;;;1.23;0.60;;;;;;;;;;5158500;27;20094;-55
2022/09/17 01:06:42;;;;;;;2.88;0.88;;;;;;;;;;5158089;27;20107;-56
2022/09/17 01:09:08;;;;;;;1.52;0.73;;;;;;;;;;5158083;27;20412;-55
2022/09/17 01:11:39;;;;;;;2.78;1.00;;;;;;;;;;5157998;27;20053;-55
2022/09/17 01:14:05;;;;;;;1.40;0.88;;;;;;;;;;5158193;27;20087;-55
2022/09/17 01:16:50;;;;;;;4.10;0.60;;;;;;;;;;5157903;27;20031;-55
2022/09/17 01:19:34;;;;;;;6.35;1.35;;;;;;;;;;5157744;27;20023;-55
2022/09/17 01:22:16;;;;;;;1.40;0.70;;;;;;;;;;5157834;27;20102;-54
2022/09/17 01:24:47;;;;;;;2.35;0.88;;;;;;;;;;5158010;27;20035;-54
2022/09/17 01:27:16;;;;;;;2.05;1.00;;;;;;;;;;5158187;27;20075;-54
2022/09/17 01:29:45;;;;;;;1.75;0.75;;;;;;;;;;5157617;27;20054;-56
2022/09/17 01:32:14;;;;;;;1.77;1.00;;;;;;;;;;5157562;27;20466;-53
2022/09/17 01:34:45;;;;;;;6.15;0.95;;;;;;;;;;5157796;27;20074;-56
2022/09/17 01:37:15;;;;;;;2.53;0.82;;;;;;;;;;5157810;27;20075;-53
2022/09/17 01:39:41;;;;;;;;;;;;;;;;;;5157808;27;20026;-54
2022/09/17 01:42:24;;;;;;;2.67;1.08;;;;;;;;;;5156708;27;19903;-55
2022/09/17 01:44:53;;;;;;;1.92;1.00;;;;;;;;;;5157488;27;20026;-54
2022/09/17 01:47:39;;;;;;;2.30;1.17;;;;;;;;;;5158044;27;20023;-55
2022/09/17 01:50:09;;;;;;;1.30;0.75;;;;;;;;;;5157538;27;20026;-55
2022/09/17 01:52:37;;;;;;;6.03;1.10;;;;;;;;;;5157429;27;20414;-55
2022/09/17 01:55:07;;;;;;;1.90;0.80;;;;;;;;;;5157641;27;20031;-54
2022/09/17 01:57:52;;;;;;;0.85;0.50;;;;;;;;;;5157423;27;20023;-54
2022/09/17 02:00:19;;;;;;;2.58;1.00;;;;;;;;;;5157065;27;20471;-55
2022/09/17 02:02:54;;;;;;;1.75;0.82;;;;;;;;;;5157738;27;20030;-55
2022/09/17 02:05:29;;;;;;;1.20;0.57;;;;;;;;;;5157052;27;20053;-53
2022/09/17 02:07:57;;;;;;;3.67;0.98;;;;;;;;;;5157142;27;20037;-55
2022/09/17 02:10:28;;;;;;;2.25;0.98;;;;;;;;;;5156832;27;20048;-53
2022/09/17 02:13:02;;;;;;;4.47;0.98;;;;;;;;;;5156797;27;20074;-55
2022/09/17 02:15:32;;;;;;;3.25;1.10;;;;;;;;;;5156717;27;20030;-55
2022/09/17 02:18:15;;;;;;;3.20;0.95;;;;;;;;;;5157282;27;20030;-54
2022/09/17 02:20:45;;;;;;;1.23;0.88;;;;;;;;;;5156683;27;20083;-54
2022/09/17 02:23:14;;;;;;;2.55;1.30;;;;;;;;;;5156969;27;20361;-55
2022/09/17 02:25:46;;;;;;;3.53;1.27;;;;;;;;;;5156535;27;20097;-53
2022/09/17 02:28:12;;;;;;;1.08;0.63;;;;;;;;;;5156785;27;20027;-55
2022/09/17 02:30:38;;;;;;;3.47;1.23;;;;;;;;;;5156356;27;20468;-54
2022/09/17 02:33:07;;;;;;;5.00;1.15;;;;;;;;;;5156676;27;20034;-55
2022/09/17 02:35:33;;;;;;;2.50;1.42;;;;;;;;;;5156212;27;20038;-56
2022/09/17 02:37:59;;;;;;;2.03;0.73;;;;;;;;;;5156263;27;20023;-55
2022/09/17 02:40:27;;;;;;;1.85;1.02;;;;;;;;;;5156507;27;20023;-54
2022/09/17 02:42:53;;;;;;;2.20;1.10;;;;;;;;;;5156460;27;20342;-55
2022/09/17 02:45:28;;;;;;;2.90;1.08;;;;;;;;;;5156786;27;20096;-54
2022/09/17 02:48:04;;;;;;;3.70;1.45;;;;;;;;;;5157024;27;20437;-55
2022/09/17 02:50:39;;;;;;;3.40;1.30;;;;;;;;;;5156315;27;20019;-53
2022/09/17 02:53:22;;;;;;;5.60;1.27;;;;;;;;;;5156030;27;20529;-55
2022/09/17 02:56:06;;;;;;;2.72;0.90;;;;;;;;;;5156294;27;20376;-55
2022/09/17 02:58:38;;;;;;;4.15;1.02;;;;;;;;;;5155957;27;20072;-55
2022/09/17 03:01:07;;;;;;;4.07;1.00;;;;;;;;;;5156243;27;20046;-54
2022/09/17 03:03:42;;;;;;;1.33;0.85;;;;;;;;;;5156210;27;20070;-55
2022/09/17 03:06:08;;;;;;;3.03;1.05;;;;;;;;;;5156096;27;20023;-55
2022/09/17 03:08:36;;;;;;;2.50;1.08;;;;;;;;;;5156288;27;20034;-55
2022/09/17 03:11:04;;;;;;;3.25;1.35;;;;;;;;;;5155653;27;20031;-53
2022/09/17 03:13:30;;;;;;;1.45;0.80;;;;;;;;;;5156323;27;20022;-55
2022/09/17 03:15:56;;;;;;;1.98;0.95;;;;;;;;;;5155534;27;20040;-55
2022/09/17 03:18:22;;;;;;;2.42;0.85;;;;;;;;;;5155599;27;20037;-55
2022/09/17 03:20:48;;;;;;;2.53;0.85;;;;;;;;;;5155609;27;20026;-52
2022/09/17 03:23:15;;;;;;;5.15;1.25;;;;;;;;;;5155923;27;20393;-55
2022/09/17 03:25:41;;;;;;;2.67;1.10;;;;;;;;;;5155784;27;20038;-53
2022/09/17 03:28:07;;;;;;;3.72;1.00;;;;;;;;;;5155510;27;20027;-55
2022/09/17 03:30:33;;;;;;;1.40;0.70;;;;;;;;;;5155780;27;20030;-55
2022/09/17 03:32:59;;;;;;;2.30;1.13;;;;;;;;;;5155517;27;20026;-55
2022/09/17 03:35:25;;;;;;;3.15;1.00;;;;;;;;;;5155740;27;20034;-56
2022/09/17 03:37:50;;;;;;;2.85;0.98;;;;;;;;;;5156066;27;20083;-56
2022/09/17 03:40:16;;;;;;;5.28;0.77;;;;;;;;;;5155505;27;20063;-55
2022/09/17 03:42:42;;;;;;;4.38;1.38;;;;;;;;;;5156014;27;20101;-54
2022/09/17 03:45:09;;;;;;;5.70;1.10;;;;;;;;;;5155758;27;20515;-54
2022/09/17 03:47:35;;;;;;;1.63;0.90;;;;;;;;;;5155365;27;20074;-55
2022/09/17 03:50:01;;;;;;;1.23;0.75;;;;;;;;;;5155417;27;20414;-56
2022/09/17 03:52:26;;;;;;;5.43;1.33;;;;;;;;;;5155744;27;20073;-56
2022/09/17 03:54:52;;;;;;;4.47;1.52;;;;;;;;;;5155347;27;20034;-55
2022/09/17 03:57:18;;;;;;;1.50;0.90;;;;;;;;;;5155302;27;20051;-56
2022/09/17 03:59:44;;;;;;;1.92;0.90;;;;;;;;;;5155249;27;20037;-54
2022/09/17 04:02:10;;;;;;;3.35;1.27;;;;;;;;;;5155314;27;20026;-55
2022/09/17 04:04:36;;;;;;;1.35;0.65;;;;;;;;;;5155845;27;20452;-55
2022/09/17 04:07:02;;;;;;;4.88;1.17;;;;;;;;;;5158376;27;20021;-55
2022/09/17 04:09:28;;;;;;;3.13;1.15;;;;;;;;;;5158949;27;20050;-56
2022/09/17 04:11:54;;;;;;;5.53;0.85;;;;;;;;;;5157931;27;20030;-56
2022/09/17 04:14:20;;;;;;;3.95;1.45;;;;;;;;;;5159154;27;20035;-56
2022/09/17 04:16:46;;;;;;;1.58;0.93;;;;;;;;;;5159103;27;20023;-56
2022/09/17 04:19:12;;;;;;;1.83;0.80;;;;;;;;;;5159376;27;20058;-56
2022/09/17 04:21:38;;;;;;;1.98;0.77;;;;;;;;;;5159627;27;20019;-55
2022/09/17 04:24:04;;;;;;;1.77;0.80;;;;;;;;;;5159610;27;20018;-53
2022/09/17 04:26:30;;;;;;;3.70;1.95;;;;;;;;;;5159707;27;20135;-56
2022/09/17 04:28:56;;;;;;;2.20;0.80;;;;;;;;;;5159177;27;20027;-56
2022/09/17 04:31:23;;;;;;;4.03;0.82;;;;;;;;;;5159442;27;20349;-54
2022/09/17 04:33:49;;;;;;;1.95;0.90;;;;;;;;;;5159260;27;20034;-55
2022/09/17 04:36:15;;;;;;;6.70;1.48;;;;;;;;;;5158771;27;20456;-55
2022/09/17 04:38:41;;;;;;;3.95;1.13;;;;;;;;;;5158688;27;20033;-54
2022/09/17 04:41:08;;;;;;;1.20;0.70;;;;;;;;;;5159166;27;20023;-56
2022/09/17 04:43:34;;;;;;;3.42;0.98;;;;;;;;;;5158935;27;20035;-56
2022/09/17 04:46:00;;;;;;;1.67;0.80;;;;;;;;;;5158851;27;20043;-56
2022/09/17 04:48:26;;;;;;;3.25;1.10;;;;;;;;;;5159097;27;20030;-57
2022/09/17 04:50:52;;;;;;;6.28;0.88;;;;;;;;;;5158800;27;20071;-56
2022/09/17 04:53:18;;;;;;;4.95;0.70;;;;;;;;;;5158474;27;20030;-56
2022/09/17 04:55:44;;;;;;;3.28;1.80;;;;;;;;;;5158229;27;20039;-55
2022/09/17 04:58:10;;;;;;;2.90;0.95;;;;;;;;;;5158587;27;20030;-55
2022/09/17 05:00:37;;;;;;;2.00;0.85;;;;;;;;;;5158290;27;20033;-56
2022/09/17 05:03:03;;;;;;;3.50;0.93;;;;;;;;;;5158610;27;20027;-56
2022/09/17 05:05:29;;;;;;;2.17;1.17;;;;;;;;;;5158154;27;20038;-56
2022/09/17 05:07:55;;;;;;;4.32;1.13;;;;;;;;;;5158386;27;20062;-55
2022/09/17 05:10:21;;;;;;;1.67;1.25;;;;;;;;;;5158069;27;20029;-56
2022/09/17 05:12:48;;;;;;;5.13;0.98;;;;;;;;;;5158023;27;20023;-55
2022/09/17 05:15:14;;;;;;;1.80;0.90;;;;;;;;;;5158726;27;20065;-56
2022/09/17 05:17:40;;;;;;;3.35;0.95;;;;;;;;;;5157677;27;20461;-53
2022/09/17 05:20:06;;;;;;;5.30;1.48;;;;;;;;;;5158204;27;20083;-55
2022/09/17 05:22:32;;;;;;;2.33;1.40;;;;;;;;;;5158628;27;20416;-55
2022/09/17 05:24:58;;;;;;;3.80;1.25;;;;;;;;;;5158375;27;20026;-53
2022/09/17 05:27:24;;;;;;;3.28;1.45;;;;;;;;;;5158226;27;20437;-54
2022/09/17 05:29:50;;;;;;;3.60;1.10;;;;;;;;;;5157650;27;20033;-56
2022/09/17 05:32:16;;;;;;;4.15;1.25;;;;;;;;;;5157890;27;20030;-55
2022/09/17 05:34:42;;;;;;;3.58;1.20;;;;;;;;;;5157807;27;20035;-53
2022/09/17 05:37:11;;;;;;;1.42;1.13;;;;;;;;;;5157627;27;20115;-53
2022/09/17 05:39:37;;;;;;;5.28;1.33;;;;;;;;;;5157539;27;20023;-55
2022/09/17 05:42:03;;;;;;;9.82;1.52;;;;;;;;;;5157749;27;20023;-52
2022/09/17 05:44:29;;;;;;;3.88;1.50;;;;;;;;;;5157474;27;20027;-54
2022/09/17 05:46:55;;;;;;;3.10;1.63;;;;;;;;;;5157413;27;20058;-53
2022/09/17 05:49:21;;;;;;;3.30;1.05;;;;;;;;;;5157242;27;20046;-55
2022/09/17 05:51:49;;;;;;;6.90;1.52;;;;;;;;;;5156743;27;20046;-55
2022/09/17 05:54:15;;;;;;;2.70;1.50;;;;;;;;;;5157672;27;20062;-55
2022/09/17 05:56:41;;;;;;;1.70;1.15;;;;;;;;;;5156854;27;20065;-53
2022/09/17 05:59:07;;;;;;;7.82;2.13;;;;;;;;;;5157700;27;20019;-55
2022/09/17 06:01:33;;;;;;;5.50;1.63;;;;;;;;;;5157832;27;20022;-55
2022/09/17 06:04:01;;;;;;;4.07;1.30;;;;;;;;;;5157368;27;20512;-55
2022/09/17 06:06:31;;;;;;;2.40;1.52;;;;;;;;;;5157791;27;20023;-55
2022/09/17 06:09:00;;;;;;;3.42;1.10;;;;;;;;;;5156521;27;20594;-55
2022/09/17 06:11:27;;;;;;;1.92;1.20;;;;;;;;;;5156865;27;20029;-53
2022/09/17 06:13:53;;;;;;;7.68;1.95;;;;;;;;;;5157026;27;20159;-53
2022/09/17 06:16:20;;;;;;;3.45;1.38;;;;;;;;;;5156808;27;20018;-55
2022/09/17 06:18:46;;;;;;;4.90;2.30;;;;;;;;;;5156972;27;20027;-55
2022/09/17 06:21:12;;;;;;;3.38;1.70;;;;;;;;;;5156602;27;20118;-55
2022/09/17 06:23:38;;;;;;;2.42;1.30;;;;;;;;;;5156608;27;20023;-55
2022/09/17 06:26:05;;;;;;;4.10;1.77;;;;;;;;;;5156591;27;20030;-54
2022/09/17 06:28:31;;;;;;;2.60;1.30;;;;;;;;;;5155954;27;20027;-52
2022/09/17 06:31:01;;;;;;;4.20;1.80;;;;;;;;;;5156214;27;20026;-53
2022/09/17 06:33:28;;;;;;;5.43;2.00;;;;;;;;;;5156510;27;20019;-55
2022/09/17 06:35:59;;;;;;;2.38;1.40;;;;;;;;;;5156562;27;20038;-53
2022/09/17 06:38:25;;;;;;;4.78;1.63;;;;;;;;;;5156837;27;20456;-55
2022/09/17 06:40:51;;;;;;;1.60;1.02;;;;;;;;;;5156571;27;20124;-55
2022/09/17 06:43:17;;;;;;;2.65;1.17;;;;;;;;;;5156324;27;20023;-55
2022/09/17 06:45:43;;;;;;;1.95;1.23;;;;;;;;;;5156703;27;20030;-55
2022/09/17 06:48:09;;;;;;;7.15;1.30;;;;;;;;;;5156944;27;20026;-52
2022/09/17 06:50:35;;;;;;;2.03;0.98;;;;;;;;;;5155419;27;20372;-55
2022/09/17 06:53:01;;;;;;;4.30;1.80;;;;;;;;;;5156193;27;20445;-55
2022/09/17 06:55:27;;;;;;;2.75;1.25;;;;;;;;;;5155933;27;20528;-55
2022/09/17 06:57:53;;;;;;;2.72;1.42;;;;;;;;;;5156257;27;20022;-52
2022/09/17 07:00:19;;;;;;;2.13;1.02;;;;;;;;;;5156105;27;20495;-55
2022/09/17 07:02:55;;;;;;;4.00;1.85;;;;;;;;;;5155588;27;20034;-53
2022/09/17 07:05:21;;;;;;;4.80;1.40;;;;;;;;;;5155797;27;20037;-54
2022/09/17 07:07:46;;;;;;;4.25;1.63;;;;;;;;;;5155784;27;20027;-55
2022/09/17 07:10:12;;;;;;;2.80;1.50;;;;;;;;;;5155842;27;20054;-55
2022/09/17 07:12:42;;;;;;;2.85;1.20;;;;;;;;;;5155646;27;20040;-55
2022/09/17 07:15:10;;;;;;;4.63;1.75;;;;;;;;;;5155940;27;20041;-55
2022/09/17 07:17:36;;;;;;;5.93;1.35;;;;;;;;;;5155629;27;20022;-61
2022/09/17 07:20:02;;;;;;;4.40;1.98;;;;;;;;;;5155674;27;20022;-56
2022/09/17 07:22:28;;;;;;;5.93;1.65;;;;;;;;;;5156467;27;20105;-55
2022/09/17 07:24:54;;;;;;;7.72;1.52;;;;;;;;;;5155985;27;20535;-54
2022/09/17 07:27:20;;;;;;;3.53;1.42;;;;;;;;;;5156226;27;20031;-55
2022/09/17 07:29:46;;;;;;;2.05;1.30;;;;;;;;;;5155805;27;20022;-54
2022/09/17 07:32:12;;;;;;;4.18;1.42;;;;;;;;;;5154297;27;20023;-55
2022/09/17 07:34:38;;;;;;;4.13;1.50;;;;;;;;;;5155751;27;20407;-54
2022/09/17 07:37:04;;;;;;;1.70;1.00;;;;;;;;;;5155438;27;20034;-55
2022/09/17 07:39:30;;;;;;;1.15;0.60;;;;;;;;;;5155757;27;20022;-55
2022/09/17 07:41:56;;;;;;;2.88;1.63;;;;;;;;;;5158012;27;20018;-56
2022/09/17 07:44:22;;;;;;;2.63;1.35;;;;;;;;;;5160153;27;20027;-55
2022/09/17 07:46:48;;;;;;;5.32;1.00;;;;;;;;;;5159700;27;20345;-56
2022/09/17 07:49:14;;;;;;;8.20;2.67;;;;;;;;;;5160156;27;20143;-56
2022/09/17 07:51:40;;;;;;;3.40;2.15;;;;;;;;;;5159565;27;20046;-55
2022/09/17 07:54:06;;;;;;;2.45;1.77;;;;;;;;;;5160110;27;20111;-56
2022/09/17 07:56:33;;;;;;;2.35;1.23;;;;;;;;;;5159398;27;20476;-55
2022/09/17 07:58:59;;;;;;;6.47;1.48;;;;;;;;;;5159622;27;20401;-55
2022/09/17 08:01:26;;;;;;;2.08;1.33;;;;;;;;;;5158950;27;20122;-54
2022/09/17 08:03:53;;;;;;;2.03;1.23;;;;;;;;;;5159275;27;20071;-56
2022/09/17 08:06:20;;;;;;;3.50;1.63;;;;;;;;;;5159312;27;20033;-55
2022/09/17 08:08:46;;;;;;;3.80;0.90;;;;;;;;;;5159513;27;20045;-56
2022/09/17 08:11:14;;;;;;;4.25;2.15;;;;;;;;;;5159761;27;20131;-55
2022/09/17 08:13:40;;;;;;;2.03;1.17;;;;;;;;;;5159721;27;20149;-56
2022/09/17 08:16:08;;;;;;;2.60;1.38;;;;;;;;;;5159494;27;20043;-56
2022/09/17 08:18:34;;;;;;;2.22;1.27;;;;;;;;;;5159284;27;20038;-56
2022/09/17 08:21:01;;;;;;;2.72;1.17;;;;;;;;;;5159539;27;20437;-54
2022/09/17 08:23:27;;;;;;;1.90;1.35;;;;;;;;;;5159336;27;20019;-54
2022/09/17 08:25:57;;;;;;;2.08;1.20;;;;;;;;;;5158933;27;20045;-56
2022/09/17 08:28:24;;;;;;;3.53;1.65;;;;;;;;;;5158760;27;20364;-56
2022/09/17 08:30:50;;;;;;;2.70;1.13;;;;;;;;;;5158925;27;20581;-54
2022/09/17 08:33:16;;;;;;;2.65;1.45;;;;;;;;;;5159395;27;20372;-56
2022/09/17 08:35:43;;;;;;;2.47;1.45;;;;;;;;;;5158711;27;20034;-56
2022/09/17 08:38:09;;;;;;;2.53;1.25;;;;;;;;;;5158993;27;20026;-57
2022/09/17 08:40:42;;;;;;;4.22;1.45;;;;;;;;;;5158625;27;20027;-58
2022/09/17 08:43:11;;;;;;;3.28;2.17;;;;;;;;;;5159130;27;20026;-57
2022/09/17 08:45:37;;;;;;;1.52;1.20;;;;;;;;;;5158779;27;20027;-53
2022/09/17 08:48:04;;;;;;;6.35;2.15;;;;;;;;;;5158467;27;20019;-56
2022/09/17 08:50:38;;;;;;;5.28;2.10;;;;;;;;;;5158246;27;20023;-57
2022/09/17 08:53:37;;;;;;;3.05;2.10;;;;;;;;;;5158931;27;20030;-56
2022/09/17 08:56:04;;;;;;;2.88;1.60;;;;;;;;;;5123912;27;20043;-57
2022/09/17 08:58:48;;;;;;;9.20;2.40;;;;;;;;;;5158282;27;20026;-55
2022/09/17 09:01:27;;;;;;;5.03;1.73;;;;;;;;;;5158340;27;20491;-57
2022/09/17 09:04:08;;;;;;;4.25;2.03;;;;;;;;;;5158557;27;20523;-55
2022/09/17 09:06:39;;;;;;;8.18;3.30;;;;;;;;;;5158167;27;20068;-56
2022/09/17 09:09:10;;;;;;;3.30;2.58;;;;;;;;;;5158946;27;20357;-54
2022/09/17 09:11:37;;;;;;;11.95;2.75;;;;;;;;;;5158504;27;20054;-56
2022/09/17 09:14:11;;;;;;;5.18;2.30;;;;;;;;;;5157968;27;20046;-56
2022/09/17 09:16:40;;;;;;;3.40;1.85;;;;;;;;;;5158541;27;20035;-55
2022/09/17 09:19:26;;;;;;;5.97;2.28;;;;;;;;;;5157936;27;20027;-57
2022/09/17 09:21:52;;;;;;;2.95;1.67;;;;;;;;;;5157817;27;20023;-54
2022/09/17 09:24:27;;;;;;;4.10;2.00;;;;;;;;;;5158184;27;20027;-56
2022/09/17 09:27:12;;;;;;;8.57;2.30;;;;;;;;;;5157661;27;20073;-57
2022/09/17 09:29:44;;;;;;;6.47;2.00;;;;;;;;;;5158328;27;20025;-57
2022/09/17 09:32:10;;;;;;;4.10;1.55;;;;;;;;;;5157579;27;20018;-55
2022/09/17 09:34:37;;;;;;;6.03;2.03;;;;;;;;;;5158159;27;20023;-56
2022/09/17 09:37:23;;;;;;;8.20;2.00;;;;;;;;;;5157496;27;20061;-57
2022/09/17 09:39:50;;;;;;;2.83;1.80;;;;;;;;;;5157680;27;20484;-57
2022/09/17 09:42:19;;;;;;;6.63;2.83;;;;;;;;;;5157803;27;20087;-56
2022/09/17 09:44:45;;;;;;;6.95;2.33;;;;;;;;;;5157783;27;20031;-55
2022/09/17 09:47:21;;;;;;;4.85;2.15;;;;;;;;;;5157700;27;20066;-57
2022/09/17 09:49:49;;;;;;;7.43;1.65;;;;;;;;;;5157849;27;20019;-55
2022/09/17 09:52:34;;;;;;;6.03;2.42;;;;;;;;;;5157270;27;20050;-57
2022/09/17 09:55:00;;;;;;;3.92;1.92;;;;;;;;;;5157535;27;20062;-56
2022/09/17 09:57:40;;;;;;;5.50;1.85;;;;;;;;;;5157693;27;20046;-57
2022/09/17 10:00:24;;;;;;;2.50;1.60;;;;;;;;;;5157498;27;20071;-55
2022/09/17 10:02:52;;;;;;;4.85;2.35;;;;;;;;;;5156862;27;20034;-57
2022/09/17 10:05:18;;;;;;;7.53;1.65;;;;;;;;;;5156676;27;20058;-57
2022/09/17 10:07:45;;;;;;;7.20;1.92;;;;;;;;;;5157040;27;20058;-56
2022/09/17 10:10:11;;;;;;;3.70;1.63;;;;;;;;;;5157532;27;20120;-55
2022/09/17 10:12:37;;;;;;;3.67;1.92;;;;;;;;;;5156870;27;20023;-56
2022/09/17 10:15:21;;;;;;;3.95;1.90;;;;;;;;;;5157021;27;20023;-57
2022/09/17 10:17:48;;;;;;;4.07;1.90;;;;;;;;;;5156737;27;20057;-58
2022/09/17 10:20:15;;;;;;;2.67;1.40;;;;;;;;;;5157538;27;20019;-58
2022/09/17 10:22:43;;;;;;;4.47;1.60;;;;;;;;;;5157193;27;20023;-58
2022/09/17 10:25:31;;;;;;;5.38;2.33;;;;;;;;;;5157220;27;20035;-58
2022/09/17 10:27:59;;;;;;;3.28;1.65;;;;;;;;;;5156802;27;20022;-58
2022/09/17 10:30:26;;;;;;;5.03;2.88;;;;;;;;;;5156834;27;20018;-58
2022/09/17 10:33:12;;;;;;;5.75;2.92;;;;;;;;;;5156371;27;20023;-58
2022/09/17 10:35:38;;;;;;;2.17;1.60;;;;;;;;;;5145177;27;20038;-58
2022/09/17 10:38:04;;;;;;;5.90;2.00;;;;;;;;;;5155987;27;20385;-58
2022/09/17 10:40:31;;;;;;;3.88;1.77;;;;;;;;;;5156368;27;20033;-58
2022/09/17 10:43:09;;;;;;;5.78;1.67;;;;;;;;;;5156302;27;20105;-59
2022/09/17 10:45:37;;;;;;;3.58;1.98;;;;;;;;;;5155001;27;20365;-58
2022/09/17 10:48:03;;;;;;;2.88;1.20;;;;;;;;;;5156752;27;20114;-58
2022/09/17 10:50:34;;;;;;;6.95;1.85;;;;;;;;;;5156254;27;20402;-58
2022/09/17 10:53:01;;;;;;;5.63;1.50;;;;;;;;;;5156046;27;20015;-58
2022/09/17 10:55:33;;;;;;;3.30;1.63;;;;;;;;;;5156283;27;20106;-58
2022/09/17 10:58:08;;;;;;;4.68;1.88;;;;;;;;;;5155960;27;20039;-58
2022/09/17 11:00:34;;;;;;;3.35;1.23;;;;;;;;;;5156246;27;20453;-58
2022/09/17 11:03:21;;;;;;;5.30;1.48;;;;;;;;;;5156303;27;20063;-58
2022/09/17 11:06:02;;;;;;;5.07;1.48;;;;;;;;;;5156683;27;20067;-58
2022/09/17 11:08:28;;;;;;;2.38;1.20;;;;;;;;;;5155773;27;20048;-58
2022/09/17 11:11:10;;;;;;;2.63;1.20;;;;;;;;;;5155813;27;20035;-58
2022/09/17 11:13:42;;;;;;;1.80;0.93;;;;;;;;;;5156677;27;20489;-58
2022/09/17 11:16:14;;;;;;;3.03;1.30;;;;;;;;;;5155998;27;20091;-58
2022/09/17 11:18:46;;;;;;;5.55;1.15;;;;;;;;;;5155744;27;20041;-58
2022/09/17 11:21:20;;;;;;;7.38;1.15;;;;;;;;;;5155653;27;20030;-58
2022/09/17 11:23:56;;;;;;;1.55;0.73;;;;;;;;;;5156363;27;20406;-57
2022/09/17 11:26:45;;;;;;;2.63;1.35;;;;;;;;;;5156074;27;20077;-58
2022/09/17 11:29:20;;;;;;;2.30;1.10;;;;;;;;;;5155250;27;20464;-58
2022/09/17 11:32:00;;;;;;;3.55;1.02;;;;;;;;;;5156047;27;20052;-58
2022/09/17 11:34:26;;;;;;;4.18;1.00;;;;;;;;;;5156069;27;20031;-58
2022/09/17 11:37:10;;;;;;;5.03;1.90;;;;;;;;;;5155492;27;20052;-58
2022/09/17 11:39:43;;;;;;;3.75;1.13;;;;;;;;;;5155347;27;20023;-58
2022/09/17 11:42:12;;;;;;;3.13;1.25;;;;;;;;;;5156033;27;20091;-58
2022/09/17 11:44:41;;;;;;;3.03;0.77;;;;;;;;;;5155957;27;20433;-58
2022/09/17 11:47:14;;;;;;;2.03;0.93;;;;;;;;;;5155361;27;20424;-58
2022/09/17 11:49:49;;;;;;;2.58;0.93;;;;;;;;;;5156116;27;20364;-58
2022/09/17 11:52:37;;;;;;;3.35;1.50;;;;;;;;;;5154965;27;20076;-58
2022/09/17 11:55:16;;;;;;;4.50;0.90;;;;;;;;;;5155627;27;20023;-58
2022/09/17 11:57:42;;;;;;;2.95;1.13;;;;;;;;;;5155592;27;20030;-58
2022/09/17 12:00:16;;;;;;;7.78;1.83;;;;;;;;;;5155557;27;20027;-58
2022/09/17 12:02:54;;;;;;;6.05;1.45;;;;;;;;;;5155109;27;20087;-58
2022/09/17 12:05:20;;;;;;;2.67;0.70;;;;;;;;;;5156021;27;20080;-58
2022/09/17 12:07:59;;;;;;;1.95;0.75;;;;;;;;;;5154688;27;20031;-58
2022/09/17 12:10:25;;;;;;;4.15;1.60;;;;;;;;;;5155695;27;20019;-59
2022/09/17 12:13:00;;;;;;;3.35;0.90;;;;;;;;;;5154909;27;20030;-58
2022/09/17 12:15:27;;;;;;;3.55;1.70;;;;;;;;;;5155200;27;20131;-58
2022/09/17 12:17:58;;;;;;;3.22;0.77;;;;;;;;;;5155145;27;20030;-58
2022/09/17 12:20:28;;;;;;;4.22;1.00;;;;;;;;;;5155497;27;20027;-58
2022/09/17 12:22:56;;;;;;;5.25;1.35;;;;;;;;;;5155733;27;20022;-58
2022/09/17 12:25:23;;;;;;;4.72;1.27;;;;;;;;;;5155351;27;20030;-58
2022/09/17 12:27:52;;;;;;;3.85;0.60;;;;;;;;;;5157232;27;20418;-58
2022/09/17 12:30:25;;;;;;;3.50;1.23;;;;;;;;;;5159224;27;20023;-58
2022/09/17 12:33:10;;;;;;;2.15;0.75;;;;;;;;;;5159441;27;20459;-58
2022/09/17 12:35:54;;;;;;;1.88;0.65;;;;;;;;;;5158717;27;20027;-58
2022/09/17 12:38:23;;;;;;;2.75;1.48;;;;;;;;;;5158467;27;20094;-58
2022/09/17 12:40:49;;;;;;;2.40;0.80;;;;;;;;;;5159011;27;20512;-58
2022/09/17 12:43:15;;;;;;;2.08;0.75;;;;;;;;;;5159243;27;20106;-57
2022/09/17 12:46:04;;;;;;;3.80;1.10;;;;;;;;;;5159184;27;20031;-58
2022/09/17 12:48:37;;;;;;;1.35;0.52;;;;;;;;;;5158428;27;20055;-58
2022/09/17 12:51:16;;;;;;;3.67;0.90;;;;;;;;;;5158544;27;20042;-58
2022/09/17 12:53:45;;;;;;;3.15;1.00;;;;;;;;;;5158385;27;20035;-58
2022/09/17 12:56:16;;;;;;;3.38;0.75;;;;;;;;;;5158683;27;20035;-58
2022/09/17 12:58:45;;;;;;;2.75;1.00;;;;;;;;;;5158936;27;20030;-58
2022/09/17 13:01:24;;;;;;;2.13;1.20;;;;;;;;;;5158647;27;20029;-58
2022/09/17 13:03:55;;;;;;;1.55;0.73;;;;;;;;;;5158786;27;20054;-58
2022/09/17 13:06:44;;;;;;;4.57;0.93;;;;;;;;;;5158273;27;20412;-58
2022/09/17 13:09:27;;;;;;;0.88;0.40;;;;;;;;;;5158022;27;20452;-58
2022/09/17 13:12:12;;;;;;;1.90;0.80;;;;;;;;;;5158531;27;20102;-58
2022/09/17 13:14:58;;;;;;;3.08;0.65;;;;;;;;;;5158648;27;20026;-58
2022/09/17 13:17:31;;;;;;;3.03;1.38;;;;;;;;;;5158249;27;20109;-58
2022/09/17 13:20:17;;;;;;;1.52;0.40;;;;;;;;;;5158301;27;20102;-58
2022/09/17 13:22:47;;;;;;;1.42;0.57;;;;;;;;;;5158427;27;20364;-58
2022/09/17 13:25:15;;;;;;;2.05;0.60;;;;;;;;;;5158496;27;20026;-57
2022/09/17 13:27:41;;;;;;;1.58;0.50;;;;;;;;;;5158080;27;20372;-58
2022/09/17 13:30:09;;;;;;;1.70;0.70;;;;;;;;;;5157784;27;20364;-58
2022/09/17 13:32:35;;;;;;;1.00;0.60;;;;;;;;;;5157685;27;20025;-57
2022/09/17 13:35:10;;;;;;;1.48;0.70;;;;;;;;;;5158213;27;20026;-58
2022/09/17 13:37:54;;;;;;;1.83;0.75;;;;;;;;;;5157526;27;20022;-56
2022/09/17 13:40:22;;;;;;;2.67;1.00;;;;;;;;;;5158442;27;20067;-58
2022/09/17 13:42:50;;;;;;;2.65;0.80;;;;;;;;;;5158333;27;20058;-58
2022/09/17 13:45:18;;;;;;;1.13;0.65;;;;;;;;;;5157868;27;20023;-58
2022/09/17 13:48:00;;;;;;;1.05;0.65;;;;;;;;;;5157442;27;20057;-58
2022/09/17 13:50:32;;;;;;;3.33;1.25;;;;;;;;;;5157490;27;20023;-58
2022/09/17 13:53:05;;;;;;;3.58;0.98;;;;;;;;;;5157012;27;20495;-58
2022/09/17 13:55:31;;;;;;;1.58;0.93;;;;;;;;;;5157535;27;20456;-58
2022/09/17 13:57:57;;;;;;;3.28;1.00;;;;;;;;;;5157194;27;20038;-58
2022/09/17 14:00:42;;;;;;;1.92;0.85;;;;;;;;;;5158027;27;20508;-58
2022/09/17 14:03:36;;;;;;;4.03;0.80;;;;;;;;;;5158034;27;20460;-57
2022/09/17 14:06:06;;;;;;;1.58;0.68;;;;;;;;;;5156990;27;20030;-57
2022/09/17 14:08:44;;;;;;;2.15;1.13;;;;;;;;;;5157556;27;20368;-58
2022/09/17 14:11:22;;;;;;;3.72;0.80;;;;;;;;;;5157503;27;20409;-58
2022/09/17 14:13:51;;;;;;;3.08;0.73;;;;;;;;;;5156916;27;20033;-58
2022/09/17 14:16:40;;;;;;;1.27;0.63;;;;;;;;;;5157320;27;20030;-59
2022/09/17 14:19:15;;;;;;;1.75;1.02;;;;;;;;;;5156624;27;20106;-58
2022/09/17 14:22:01;;;;;;;1.58;0.70;;;;;;;;;;5157056;27;20037;-58
2022/09/17 14:24:32;;;;;;;6.72;1.15;;;;;;;;;;5157008;27;20023;-57
2022/09/17 14:26:59;;;;;;;2.55;0.98;;;;;;;;;;5156595;27;20508;-57
2022/09/17 14:29:50;;;;;;;5.82;1.20;;;;;;;;;;5157110;27;20034;-58
2022/09/17 14:32:19;;;;;;;4.40;0.88;;;;;;;;;;5157106;27;20069;-58
2022/09/17 14:34:46;;;;;;;1.75;0.77;;;;;;;;;;5156967;27;20384;-58
2022/09/17 14:37:14;;;;;;;3.03;0.98;;;;;;;;;;5156479;27;20064;-58
2022/09/17 14:39:40;;;;;;;2.13;1.27;;;;;;;;;;5156700;27;20026;-58
2022/09/17 14:42:12;;;;;;;3.05;1.33;;;;;;;;;;5156659;27;20055;-58
2022/09/17 14:44:46;;;;;;;1.88;0.80;;;;;;;;;;5156381;27;20026;-58
2022/09/17 14:47:15;;;;;;;2.45;0.88;;;;;;;;;;5156634;27;20037;-58
2022/09/17 14:49:41;;;;;;;4.40;1.70;;;;;;;;;;5156279;27;20364;-57
2022/09/17 14:52:24;;;;;;;2.17;1.20;;;;;;;;;;5155783;27;20426;-58
2022/09/17 14:55:08;;;;;;;5.90;1.23;;;;;;;;;;5156441;27;20027;-58
2022/09/17 14:57:35;;;;;;;2.00;1.05;;;;;;;;;;5156668;27;20376;-58
2022/09/17 15:00:01;;;;;;;1.88;0.85;;;;;;;;;;5156513;27;20019;-58